createdAt,value
2022-08-03T00:00:36.299Z,29.70
2022-08-03T00:03:04.980Z,30.00
2022-08-03T00:05:35.951Z,29.70
2022-08-03T00:08:04.456Z,29.50
2022-08-03T00:10:32.510Z,29.30
2022-08-03T00:13:00.729Z,29.60
2022-08-03T00:15:28.567Z,30.00
2022-08-03T00:17:56.652Z,29.90
2022-08-03T00:20:24.826Z,29.70
2022-08-03T00:22:53.044Z,29.40
2022-08-03T00:25:21.094Z,29.20
2022-08-03T00:27:50.352Z,29.60
2022-08-03T00:30:18.844Z,30.00
2022-08-03T00:32:48.066Z,29.70
2022-08-03T00:35:33.450Z,29.30
2022-08-03T00:38:04.550Z,29.00
2022-08-03T00:40:32.685Z,29.60
2022-08-03T00:43:03.365Z,30.50
2022-08-03T00:45:33.738Z,30.40
2022-08-03T00:48:02.656Z,29.90
2022-08-03T00:50:32.970Z,29.40
2022-08-03T00:53:02.360Z,29.50
2022-08-03T00:55:30.712Z,30.30
2022-08-03T00:57:59.939Z,30.50
2022-08-03T01:00:30.520Z,30.00
2022-08-03T01:02:58.974Z,29.60
2022-08-03T01:05:27.065Z,29.40
2022-08-03T01:08:06.502Z,30.20
2022-08-03T01:10:50.337Z,30.60
2022-08-03T01:13:59.873Z,30.20
2022-08-03T01:16:43.019Z,29.60
2022-08-03T01:19:11.051Z,29.60
2022-08-03T01:22:05.160Z,30.40
2022-08-03T01:25:09.811Z,30.60
2022-08-03T01:28:08.766Z,30.00
2022-08-03T01:30:44.041Z,29.40
2022-08-03T01:33:25.534Z,29.80
2022-08-03T01:36:18.693Z,30.70
2022-08-03T01:38:54.510Z,30.50
2022-08-03T01:41:27.526Z,30.00
2022-08-03T01:44:27.005Z,29.50
2022-08-03T01:46:50.405Z,29.80
2022-08-03T01:49:19.235Z,30.60
2022-08-03T01:52:03.998Z,30.40
2022-08-03T01:54:45.848Z,29.90
2022-08-03T01:57:14.667Z,29.50
2022-08-03T01:59:45.230Z,30.00
2022-08-03T02:02:33.217Z,30.70
2022-08-03T02:05:05.106Z,30.50
2022-08-03T02:07:42.052Z,30.00
2022-08-03T02:10:12.068Z,29.50
2022-08-03T02:12:45.881Z,29.40
2022-08-03T02:15:18.984Z,30.00
2022-08-03T02:17:49.093Z,30.30
2022-08-03T02:20:18.441Z,29.90
2022-08-03T02:22:48.322Z,29.50
2022-08-03T02:25:17.319Z,29.30
2022-08-03T02:28:07.642Z,29.90
2022-08-03T02:30:39.550Z,30.00
2022-08-03T02:33:20.143Z,29.50
2022-08-03T02:35:51.167Z,29.10
2022-08-03T02:38:22.974Z,28.90
2022-08-03T02:40:52.181Z,29.40
2022-08-03T02:43:25.640Z,29.90
2022-08-03T02:45:54.940Z,29.50
2022-08-03T02:48:29.711Z,29.00
2022-08-03T02:51:00.618Z,28.70
2022-08-03T02:53:31.283Z,28.60
2022-08-03T02:56:01.085Z,29.10
2022-08-03T02:58:31.880Z,29.40
2022-08-03T03:01:02.591Z,29.00
2022-08-03T03:03:33.204Z,28.60
2022-08-03T03:06:11.504Z,28.30
2022-08-03T03:08:41.115Z,28.30
2022-08-03T03:11:11.120Z,28.80
2022-08-03T03:13:43.169Z,29.10
2022-08-03T03:16:14.292Z,28.80
2022-08-03T03:18:49.513Z,28.50
2022-08-03T03:21:20.505Z,28.20
2022-08-03T03:23:49.479Z,28.10
2022-08-03T03:26:17.863Z,28.70
2022-08-03T03:28:46.516Z,29.00
2022-08-03T03:31:14.743Z,28.70
2022-08-03T03:33:43.060Z,28.30
2022-08-03T03:36:11.581Z,28.00
2022-08-03T03:38:39.544Z,28.20
2022-08-03T03:41:08.029Z,28.80
2022-08-03T03:43:36.253Z,28.90
2022-08-03T03:46:05.460Z,28.60
2022-08-03T03:48:33.744Z,28.20
2022-08-03T03:51:02.108Z,28.00
2022-08-03T03:53:30.221Z,28.20
2022-08-03T03:56:02.678Z,28.80
2022-08-03T03:58:32.996Z,29.00
2022-08-03T04:01:05.660Z,28.60
2022-08-03T04:03:33.983Z,28.30
2022-08-03T04:06:20.210Z,28.00
2022-08-03T04:09:07.066Z,28.10
2022-08-03T04:11:44.237Z,28.70
2022-08-03T04:14:20.255Z,28.70
2022-08-03T04:16:52.698Z,28.40
2022-08-03T04:19:47.864Z,28.10
2022-08-03T04:22:22.440Z,27.90
2022-08-03T04:25:00.698Z,28.30
2022-08-03T04:27:35.225Z,28.80
2022-08-03T04:30:06.915Z,28.60
2022-08-03T04:32:37.724Z,28.30
2022-08-03T04:35:07.423Z,28.00
2022-08-03T04:37:48.323Z,27.80
2022-08-03T04:40:22.949Z,27.90
2022-08-03T04:42:56.381Z,28.20
2022-08-03T04:45:26.045Z,28.30
2022-08-03T04:47:54.971Z,28.20
2022-08-03T04:50:24.288Z,28.00
2022-08-03T04:53:09.035Z,27.80
2022-08-03T04:55:38.179Z,27.70
2022-08-03T04:58:06.891Z,27.60
2022-08-03T05:00:36.317Z,27.50
2022-08-03T05:03:04.573Z,28.10
2022-08-03T05:05:49.928Z,28.70
2022-08-03T05:08:20.631Z,28.60
2022-08-03T05:10:59.022Z,28.40
2022-08-03T05:13:27.824Z,28.20
2022-08-03T05:15:55.789Z,28.10
2022-08-03T05:18:24.154Z,28.10
2022-08-03T05:20:52.209Z,28.50
2022-08-03T05:23:20.476Z,29.00
2022-08-03T05:25:49.690Z,28.90
2022-08-03T05:28:18.665Z,28.70
2022-08-03T05:30:46.778Z,28.50
2022-08-03T05:33:15.526Z,28.40
2022-08-03T05:35:57.589Z,28.30
2022-08-03T05:38:34.341Z,28.50
2022-08-03T05:41:22.650Z,29.10
2022-08-03T05:43:54.279Z,29.10
2022-08-03T05:46:26.356Z,28.90
2022-08-03T05:48:55.157Z,28.60
2022-08-03T05:51:23.107Z,28.30
2022-08-03T05:53:51.236Z,28.50
2022-08-03T05:56:25.231Z,29.30
2022-08-03T05:58:53.673Z,30.00
2022-08-03T06:01:22.791Z,29.80
2022-08-03T06:03:52.654Z,29.60
2022-08-03T06:06:21.027Z,29.50
2022-08-03T06:08:49.883Z,29.30
2022-08-03T06:11:21.396Z,29.20
2022-08-03T06:13:52.586Z,29.80
2022-08-03T06:16:23.635Z,30.30
2022-08-03T06:18:51.892Z,30.20
2022-08-03T06:21:19.944Z,29.90
2022-08-03T06:23:52.944Z,29.60
2022-08-03T06:26:22.248Z,29.50
2022-08-03T06:28:52.615Z,29.40
2022-08-03T06:31:24.369Z,29.40
2022-08-03T06:34:32.396Z,29.60
2022-08-03T06:36:41.204Z,30.60
2022-08-03T06:39:09.415Z,31.30
2022-08-03T06:41:44.596Z,31.20
2022-08-03T06:44:13.842Z,30.90
2022-08-03T06:46:42.674Z,30.70
2022-08-03T06:49:11.148Z,30.60
2022-08-03T06:52:05.487Z,30.50
2022-08-03T06:54:27.919Z,31.10
2022-08-03T06:56:56.083Z,32.10
2022-08-03T07:00:06.503Z,32.10
2022-08-03T07:02:19.116Z,31.80
2022-08-03T07:04:49.665Z,31.50
2022-08-03T07:07:18.378Z,31.30
2022-08-03T07:09:57.182Z,31.10
2022-08-03T07:12:30.121Z,30.70
2022-08-03T07:15:01.769Z,30.10
2022-08-03T07:17:32.442Z,29.90
2022-08-03T07:20:01.974Z,29.90
2022-08-03T07:22:30.781Z,29.90
2022-08-03T07:25:02.361Z,29.90
2022-08-03T07:27:30.951Z,29.80
2022-08-03T07:30:00.262Z,29.70
2022-08-03T07:32:31.954Z,29.90
2022-08-03T07:35:01.091Z,29.90
2022-08-03T07:37:31.102Z,30.00
2022-08-03T07:39:59.837Z,29.80
2022-08-03T07:42:29.533Z,29.80
2022-08-03T07:44:58.285Z,29.70
2022-08-03T07:47:35.353Z,29.70
2022-08-03T07:50:06.411Z,29.50
2022-08-03T07:52:50.317Z,29.50
2022-08-03T07:55:24.961Z,29.60
2022-08-03T07:58:08.281Z,29.80
2022-08-03T08:00:36.419Z,30.00
2022-08-03T08:03:05.266Z,30.00
2022-08-03T08:05:35.852Z,30.00
2022-08-03T08:08:04.549Z,30.10
2022-08-03T08:10:33.385Z,30.10
2022-08-03T08:13:02.479Z,30.30
2022-08-03T08:15:30.611Z,30.40
2022-08-03T08:18:01.406Z,30.30
2022-08-03T08:20:38.454Z,30.40
2022-08-03T08:23:24.202Z,30.50
2022-08-03T08:25:57.497Z,30.50
2022-08-03T08:28:32.875Z,30.50
2022-08-03T08:31:02.864Z,30.60
2022-08-03T08:33:54.238Z,30.60
2022-08-03T08:36:19.275Z,30.70
2022-08-03T08:38:50.403Z,30.80
2022-08-03T08:41:18.625Z,31.00
2022-08-03T08:43:47.064Z,31.00
2022-08-03T08:46:23.339Z,31.10
2022-08-03T08:48:54.427Z,30.80
2022-08-03T08:51:52.763Z,31.00
2022-08-03T08:54:18.798Z,31.10
2022-08-03T08:56:47.570Z,31.20
2022-08-03T08:59:19.116Z,31.40
2022-08-03T09:01:47.544Z,31.40
2022-08-03T09:04:15.655Z,31.50
2022-08-03T09:06:58.672Z,31.60
2022-08-03T09:10:11.255Z,31.80
2022-08-03T09:12:41.195Z,31.80
2022-08-03T09:15:32.274Z,32.00
2022-08-03T09:18:02.518Z,32.20
2022-08-03T09:20:35.281Z,32.10
2022-08-03T09:23:51.890Z,32.20
2022-08-03T09:26:02.121Z,32.20
2022-08-03T09:28:59.800Z,32.30
2022-08-03T09:31:43.645Z,32.40
2022-08-03T09:34:15.024Z,32.50
2022-08-03T09:36:51.516Z,32.50
2022-08-03T09:39:41.659Z,32.50
2022-08-03T09:42:15.464Z,32.50
2022-08-03T09:44:49.582Z,32.60
2022-08-03T09:47:28.925Z,32.70
2022-08-03T09:50:02.493Z,32.90
2022-08-03T09:52:49.833Z,33.00
2022-08-03T09:56:34.856Z,33.10
2022-08-03T09:58:15.208Z,33.20
2022-08-03T10:01:04.430Z,32.90
2022-08-03T10:03:36.615Z,32.90
2022-08-03T10:06:28.985Z,32.90
2022-08-03T10:09:12.135Z,32.90
2022-08-03T10:11:42.680Z,33.00
2022-08-03T10:14:19.802Z,33.30
2022-08-03T10:16:51.635Z,33.50
2022-08-03T10:19:20.031Z,33.50
2022-08-03T10:21:55.943Z,33.70
2022-08-03T10:24:30.625Z,33.70
2022-08-03T10:27:10.564Z,33.80
2022-08-03T10:29:43.131Z,33.70
2022-08-03T10:32:23.264Z,33.70
2022-08-03T10:34:59.983Z,33.60
2022-08-03T10:37:33.070Z,33.60
2022-08-03T10:40:03.149Z,34.10
2022-08-03T10:42:32.402Z,34.30
2022-08-03T10:45:20.393Z,34.40
2022-08-03T10:47:50.426Z,34.50
2022-08-03T10:50:20.043Z,34.70
2022-08-03T10:52:58.575Z,34.90
2022-08-03T10:55:59.340Z,35.20
2022-08-03T10:58:53.119Z,35.60
2022-08-03T11:01:59.273Z,36.30
2022-08-03T11:04:30.485Z,37.00
2022-08-03T11:07:21.318Z,37.00
2022-08-03T11:09:57.479Z,36.90
2022-08-03T11:12:33.642Z,37.20
2022-08-03T11:15:06.412Z,37.10
2022-08-03T11:17:46.646Z,37.30
2022-08-03T11:20:56.395Z,37.40
2022-08-03T11:24:05.098Z,37.90
2022-08-03T11:26:33.399Z,38.40
2022-08-03T11:29:30.486Z,38.20
2022-08-03T11:31:59.012Z,38.40
2022-08-03T11:34:27.436Z,38.60
2022-08-03T11:37:27.495Z,38.30
2022-08-03T11:39:59.771Z,38.10
2022-08-03T11:42:29.645Z,38.10
2022-08-03T11:44:59.922Z,37.90
2022-08-03T11:47:30.565Z,38.10
2022-08-03T11:50:02.524Z,38.40
2022-08-03T11:52:41.650Z,38.10
2022-08-03T11:55:12.043Z,37.90
2022-08-03T11:59:17.035Z,37.50
2022-08-03T12:00:35.224Z,37.30
2022-08-03T12:03:07.700Z,37.30
2022-08-03T12:05:52.708Z,37.30
2022-08-03T12:08:32.719Z,37.40
2022-08-03T12:11:06.344Z,37.10
2022-08-03T12:14:35.718Z,36.70
2022-08-03T12:16:38.714Z,36.90
2022-08-03T12:19:08.680Z,37.00
2022-08-03T12:21:56.906Z,36.80
2022-08-03T12:24:30.017Z,36.90
2022-08-03T12:27:00.121Z,36.60
2022-08-03T12:29:31.208Z,36.60
2022-08-03T12:32:00.136Z,36.20
2022-08-03T12:34:50.313Z,35.70
2022-08-03T12:37:23.593Z,35.90
2022-08-03T12:40:02.448Z,36.00
2022-08-03T12:42:36.026Z,36.20
2022-08-03T12:45:39.651Z,36.50
2022-08-03T12:48:16.729Z,36.50
2022-08-03T12:50:45.105Z,36.60
2022-08-03T12:53:13.069Z,36.80
2022-08-03T12:55:57.507Z,36.90
2022-08-03T12:58:36.845Z,36.60
2022-08-03T13:01:09.818Z,35.90
2022-08-03T13:03:50.252Z,35.60
2022-08-03T13:06:24.290Z,35.30
2022-08-03T13:09:08.484Z,35.00
2022-08-03T13:11:55.497Z,35.00
2022-08-03T13:14:24.881Z,35.20
2022-08-03T13:16:52.976Z,35.20
2022-08-03T13:19:21.171Z,35.00
2022-08-03T13:22:01.930Z,34.70
2022-08-03T13:24:33.928Z,34.60
2022-08-03T13:28:09.862Z,34.60
2022-08-03T13:29:53.494Z,34.70
2022-08-03T13:32:24.910Z,34.80
2022-08-03T13:34:53.635Z,34.50
2022-08-03T13:37:24.836Z,34.50
2022-08-03T13:39:58.956Z,34.50
2022-08-03T13:42:30.164Z,34.40
2022-08-03T13:44:58.452Z,34.60
2022-08-03T13:47:27.516Z,34.50
2022-08-03T13:50:01.566Z,34.50
2022-08-03T13:52:35.188Z,34.30
2022-08-03T13:55:05.478Z,34.30
2022-08-03T13:58:11.435Z,34.10
2022-08-03T14:00:29.320Z,34.00
2022-08-03T14:03:15.332Z,34.00
2022-08-03T14:05:44.761Z,33.70
2022-08-03T14:08:13.029Z,33.70
2022-08-03T14:10:43.362Z,33.50
2022-08-03T14:13:18.200Z,33.30
2022-08-03T14:15:50.271Z,33.20
2022-08-03T14:18:28.432Z,33.30
2022-08-03T14:21:06.670Z,33.20
2022-08-03T14:23:38.137Z,33.30
2022-08-03T14:26:08.795Z,33.20
2022-08-03T14:28:37.314Z,33.20
2022-08-03T14:31:08.114Z,33.20
2022-08-03T14:33:46.571Z,33.20
2022-08-03T14:36:14.811Z,33.10
2022-08-03T14:38:42.688Z,33.10
2022-08-03T14:41:12.252Z,33.00
2022-08-03T14:44:01.841Z,33.00
2022-08-03T14:46:31.824Z,32.90
2022-08-03T14:50:28.751Z,32.80
2022-08-03T14:51:51.422Z,32.70
2022-08-03T14:54:22.855Z,32.60
2022-08-03T14:56:50.986Z,32.60
2022-08-03T14:59:19.061Z,32.60
2022-08-03T15:02:02.364Z,32.50
2022-08-03T15:04:35.085Z,32.40
2022-08-03T15:07:03.118Z,32.30
2022-08-03T15:09:31.712Z,32.10
2022-08-03T15:12:00.022Z,32.00
2022-08-03T15:14:32.367Z,31.90
2022-08-03T15:17:01.601Z,31.80
2022-08-03T15:20:01.029Z,31.70
2022-08-03T15:22:20.524Z,31.90
2022-08-03T15:24:53.740Z,32.00
2022-08-03T15:27:24.471Z,32.20
2022-08-03T15:30:07.153Z,32.30
2022-08-03T15:32:38.035Z,32.40
2022-08-03T15:35:06.129Z,32.50
2022-08-03T15:37:34.145Z,32.60
2022-08-03T15:40:03.497Z,32.70
2022-08-03T15:42:33.691Z,32.70
2022-08-03T15:45:02.025Z,32.60
2022-08-03T15:47:33.479Z,32.60
2022-08-03T15:50:04.295Z,32.50
2022-08-03T15:52:34.753Z,32.60
2022-08-03T15:55:02.654Z,32.60
2022-08-03T15:57:31.008Z,32.70
2022-08-03T15:59:58.876Z,32.80
2022-08-03T16:02:27.607Z,32.60
2022-08-03T16:04:55.760Z,32.70
2022-08-03T16:07:58.632Z,32.70
2022-08-03T16:10:31.036Z,32.70
2022-08-03T16:13:00.557Z,32.70
2022-08-03T16:15:28.866Z,32.40
2022-08-03T16:17:57.477Z,32.20
2022-08-03T16:20:30.896Z,32.00
2022-08-03T16:23:11.353Z,32.00
2022-08-03T16:25:41.857Z,31.90
2022-08-03T16:28:14.765Z,31.70
2022-08-03T16:30:45.356Z,31.50
2022-08-03T16:33:17.252Z,31.30
2022-08-03T16:35:47.476Z,31.20
2022-08-03T16:38:19.169Z,31.00
2022-08-03T16:40:52.402Z,30.80
2022-08-03T16:43:23.078Z,30.80
2022-08-03T16:45:52.233Z,30.80
2022-08-03T16:48:23.401Z,30.80
2022-08-03T16:50:51.472Z,30.80
2022-08-03T16:53:33.678Z,30.90
2022-08-03T16:56:10.811Z,30.90
2022-08-03T16:58:42.274Z,30.90
2022-08-03T17:01:21.687Z,30.90
2022-08-03T17:04:03.364Z,30.90
2022-08-03T17:06:45.209Z,30.80
2022-08-03T17:09:21.725Z,30.80
2022-08-03T17:11:52.648Z,30.70
2022-08-03T17:14:28.385Z,30.60
2022-08-03T17:17:01.874Z,30.60
2022-08-03T17:19:33.529Z,30.50
2022-08-03T17:22:08.376Z,30.40
2022-08-03T17:24:45.015Z,30.40
2022-08-03T17:28:49.758Z,30.30
2022-08-03T17:30:11.906Z,30.20
2022-08-03T17:32:56.872Z,30.10
2022-08-03T17:35:36.985Z,30.10
2022-08-03T17:38:12.009Z,29.90
2022-08-03T17:44:14.206Z,29.80
2022-08-03T17:46:23.166Z,29.70
2022-08-03T17:48:51.737Z,29.50
2022-08-03T17:51:46.527Z,29.30
2022-08-03T17:54:29.551Z,29.20
2022-08-03T17:57:22.417Z,29.10
2022-08-03T18:00:23.052Z,29.00
2022-08-03T18:03:23.745Z,29.00
2022-08-03T18:06:10.493Z,28.90
2022-08-03T18:08:51.324Z,28.80
2022-08-03T18:11:35.337Z,28.70
2022-08-03T18:14:35.288Z,28.70
2022-08-03T18:17:10.366Z,28.60
2022-08-03T18:20:02.660Z,28.60
2022-08-03T18:22:30.480Z,28.60
2022-08-03T18:25:01.156Z,28.50
2022-08-03T18:27:42.708Z,28.50
2022-08-03T18:30:16.170Z,28.50
2022-08-03T18:33:01.209Z,28.40
2022-08-03T18:35:53.492Z,28.40
2022-08-03T18:38:24.279Z,28.40
2022-08-03T18:40:52.969Z,28.40
2022-08-03T18:43:21.631Z,28.40
2022-08-03T18:46:22.596Z,28.30
2022-08-03T18:49:11.394Z,28.30
2022-08-03T18:51:42.966Z,28.20
2022-08-03T18:54:58.852Z,28.20
2022-08-03T18:57:30.330Z,28.10
2022-08-03T19:00:10.535Z,28.00
2022-08-03T19:03:02.444Z,27.90
2022-08-03T19:05:57.735Z,27.90
2022-08-03T19:08:38.846Z,27.90
2022-08-03T19:11:10.625Z,27.80
2022-08-03T19:13:50.036Z,27.70
2022-08-03T19:16:24.640Z,27.60
2022-08-03T19:18:56.888Z,27.60
2022-08-03T19:21:27.194Z,27.60
2022-08-03T19:24:00.178Z,27.60
2022-08-03T19:26:31.026Z,27.60
2022-08-03T19:29:00.192Z,27.60
2022-08-03T19:31:30.775Z,27.60
2022-08-03T19:34:01.172Z,27.60
2022-08-03T19:36:33.838Z,27.50
2022-08-03T19:39:09.330Z,27.40
2022-08-03T19:41:42.263Z,27.40
2022-08-03T19:44:20.064Z,27.40
2022-08-03T19:47:10.623Z,27.40
2022-08-03T19:50:05.977Z,27.40
2022-08-03T19:52:39.383Z,27.40
2022-08-03T19:55:12.457Z,27.30
2022-08-03T19:57:45.681Z,27.30
2022-08-03T20:00:14.781Z,27.30
2022-08-03T20:02:47.317Z,27.30
2022-08-03T20:05:19.396Z,27.30
2022-08-03T20:07:48.624Z,27.30
2022-08-03T20:10:18.602Z,27.30
2022-08-03T20:12:49.440Z,27.30
2022-08-03T20:15:31.134Z,27.30
2022-08-03T20:18:01.072Z,27.30
2022-08-03T20:20:34.429Z,27.20
2022-08-03T20:23:07.321Z,27.20
2022-08-03T20:25:57.049Z,27.30
2022-08-03T20:28:52.742Z,27.30
2022-08-03T20:31:30.576Z,27.30
2022-08-03T20:34:06.139Z,27.80
2022-08-03T20:36:34.234Z,28.40
2022-08-03T20:39:07.667Z,29.00
2022-08-03T20:41:36.730Z,29.60
2022-08-03T20:44:05.712Z,30.30
2022-08-03T20:46:53.341Z,30.70
2022-08-03T20:49:24.846Z,30.90
2022-08-03T20:51:54.791Z,31.30
2022-08-03T20:54:29.570Z,30.80
2022-08-03T20:57:03.675Z,30.90
2022-08-03T20:59:50.860Z,31.30
2022-08-03T21:02:30.072Z,31.00
2022-08-03T21:05:03.514Z,30.70
2022-08-03T21:08:06.274Z,30.80
2022-08-03T21:10:38.569Z,31.30
2022-08-03T21:12:54.576Z,29.90
2022-08-03T21:13:17.662Z,31.40
2022-08-03T21:16:05.453Z,31.80
2022-08-03T21:18:46.276Z,32.10
2022-08-03T21:21:16.796Z,31.80
2022-08-03T21:23:49.650Z,31.20
2022-08-03T21:26:19.933Z,30.70
2022-08-03T21:28:53.754Z,30.30
2022-08-03T21:31:25.751Z,29.90
2022-08-03T21:34:02.862Z,30.40
2022-08-03T21:36:34.628Z,30.90
2022-08-03T21:39:05.068Z,30.60
2022-08-03T21:41:33.627Z,30.30
2022-08-03T21:44:02.622Z,29.90
2022-08-03T21:46:39.597Z,30.00
2022-08-03T21:50:07.377Z,30.80
2022-08-03T21:52:00.142Z,31.00
2022-08-03T21:54:42.796Z,30.60
2022-08-03T21:57:22.318Z,31.00
2022-08-03T22:00:09.243Z,31.70
2022-08-03T22:02:45.761Z,31.30
2022-08-03T22:05:42.999Z,30.70
2022-08-03T22:08:14.445Z,30.70
2022-08-03T22:10:45.871Z,31.40
2022-08-03T22:13:43.932Z,31.20
2022-08-03T22:16:07.739Z,30.70
2022-08-03T22:18:42.132Z,30.30
2022-08-03T22:21:12.447Z,31.00
2022-08-03T22:23:55.546Z,31.50
2022-08-03T22:26:34.764Z,31.10
2022-08-03T22:29:08.631Z,30.50
2022-08-03T22:31:58.329Z,30.50
2022-08-03T22:34:27.623Z,31.20
2022-08-03T22:37:00.454Z,31.30
2022-08-03T22:39:29.729Z,30.90
2022-08-03T22:41:59.585Z,30.40
2022-08-03T22:44:28.617Z,30.60
2022-08-03T22:46:56.757Z,31.00
2022-08-03T22:49:25.624Z,30.60
2022-08-03T22:51:54.188Z,30.00
2022-08-03T22:54:23.281Z,29.80
2022-08-03T22:56:52.152Z,30.40
2022-08-03T22:59:40.284Z,31.00
2022-08-03T23:02:21.085Z,30.70
2022-08-03T23:05:05.133Z,30.20
2022-08-03T23:07:40.305Z,30.30
2022-08-03T23:10:13.705Z,31.00
2022-08-03T23:12:43.494Z,31.00
2022-08-03T23:15:13.668Z,30.50
2022-08-03T23:17:58.297Z,30.10
2022-08-03T23:20:28.904Z,30.50
2022-08-03T23:23:00.424Z,31.30
2022-08-03T23:25:29.140Z,31.10
2022-08-03T23:28:05.488Z,30.60
2022-08-03T23:30:37.756Z,30.10
2022-08-03T23:33:07.134Z,30.70
2022-08-03T23:36:22.679Z,31.30
2022-08-03T23:38:46.719Z,30.90
2022-08-03T23:41:15.427Z,30.20
2022-08-03T23:43:51.966Z,30.00
2022-08-03T23:46:26.995Z,30.30
2022-08-03T23:48:56.634Z,30.40
2022-08-03T23:51:56.202Z,30.00
2022-08-03T23:54:41.571Z,29.70
2022-08-03T23:57:25.676Z,29.60
